createdAt,value
2019-02-19T00:01:35.311Z,14.03
2019-02-19T00:04:04.704Z,13.27
2019-02-19T00:06:34.052Z,11.70
2019-02-19T00:09:05.067Z,13.77
2019-02-19T00:11:34.070Z,10.10
2019-02-19T00:14:03.444Z,13.37
2019-02-19T00:16:32.894Z,12.13
2019-02-19T00:19:01.906Z,11.87
2019-02-19T00:21:30.936Z,7.97
2019-02-19T00:24:00.339Z,10.87
2019-02-19T00:26:29.428Z,9.47
2019-02-19T00:28:58.460Z,8.83
2019-02-19T00:31:27.834Z,11.93
2019-02-19T00:33:58.550Z,10.67
2019-02-19T00:36:27.556Z,9.10
2019-02-19T00:38:56.582Z,8.23
2019-02-19T00:41:25.606Z,7.13
2019-02-19T00:43:55.508Z,5.07
2019-02-19T00:46:24.514Z,6.90
2019-02-19T00:48:53.861Z,7.67
2019-02-19T00:51:23.024Z,8.53
2019-02-19T00:53:52.124Z,7.70
2019-02-19T00:56:21.197Z,6.90
2019-02-19T00:58:50.281Z,5.83
2019-02-19T01:01:19.384Z,8.17
2019-02-19T01:03:48.409Z,7.77
2019-02-19T01:06:17.724Z,6.57
2019-02-19T01:08:46.752Z,6.60
2019-02-19T01:11:16.127Z,5.47
2019-02-19T01:13:45.328Z,9.70
2019-02-19T01:16:14.376Z,8.47
2019-02-19T01:18:43.882Z,7.17
2019-02-19T01:21:13.276Z,6.60
2019-02-19T01:23:42.944Z,7.00
2019-02-19T01:26:11.937Z,7.87
2019-02-19T01:28:40.946Z,6.23
2019-02-19T01:31:10.772Z,9.40
2019-02-19T01:33:40.621Z,6.87
2019-02-19T01:36:09.651Z,6.97
2019-02-19T01:38:38.664Z,7.77
2019-02-19T01:41:08.034Z,10.17
2019-02-19T01:43:37.161Z,7.27
2019-02-19T01:46:06.484Z,8.07
2019-02-19T01:48:35.498Z,8.40
2019-02-19T01:51:04.722Z,8.07
2019-02-19T01:53:33.756Z,10.77
2019-02-19T01:56:03.591Z,8.40
2019-02-19T01:58:32.641Z,8.57
2019-02-19T02:01:02.386Z,10.57
2019-02-19T02:03:31.845Z,10.57
2019-02-19T02:06:01.460Z,9.20
2019-02-19T02:08:30.770Z,8.90
2019-02-19T02:10:59.765Z,8.93
2019-02-19T02:13:28.868Z,10.27
2019-02-19T02:15:57.997Z,12.33
2019-02-19T02:18:27.255Z,9.70
2019-02-19T02:20:56.661Z,12.90
2019-02-19T02:23:26.062Z,17.13
2019-02-19T02:25:55.280Z,14.13
2019-02-19T02:28:24.666Z,11.87
2019-02-19T02:30:53.844Z,15.37
2019-02-19T02:33:23.266Z,11.23
2019-02-19T02:35:52.690Z,11.43
2019-02-19T02:38:21.710Z,14.50
2019-02-19T02:40:51.111Z,11.57
2019-02-19T02:43:20.460Z,12.47
2019-02-19T02:45:53.302Z,19.37
2019-02-19T02:48:20.311Z,18.67
2019-02-19T02:50:49.724Z,13.53
2019-02-19T02:53:18.788Z,14.37
2019-02-19T02:55:48.061Z,11.93
2019-02-19T02:58:17.122Z,14.43
2019-02-19T03:00:46.149Z,14.77
2019-02-19T03:03:15.221Z,15.63
2019-02-19T03:06:00.598Z,16.67
2019-02-19T03:08:29.606Z,15.43
2019-02-19T03:10:58.599Z,13.70
2019-02-19T03:13:27.750Z,12.47
2019-02-19T03:16:02.481Z,15.50
2019-02-19T03:18:27.667Z,12.03
2019-02-19T03:20:56.963Z,14.10
2019-02-19T03:23:26.007Z,15.37
2019-02-19T03:25:55.052Z,20.13
2019-02-19T03:28:24.100Z,15.13
2019-02-19T03:30:53.125Z,16.60
2019-02-19T03:33:22.365Z,15.57
2019-02-19T03:35:51.684Z,17.60
2019-02-19T03:38:20.930Z,26.63
2019-02-19T03:40:50.217Z,17.07
2019-02-19T03:43:19.718Z,16.27
2019-02-19T03:45:49.216Z,16.30
2019-02-19T03:48:18.974Z,14.70
2019-02-19T03:50:48.387Z,19.00
2019-02-19T03:53:17.870Z,18.00
2019-02-19T03:55:47.306Z,17.47
2019-02-19T03:58:16.708Z,15.60
2019-02-19T04:00:45.958Z,20.67
2019-02-19T04:03:14.967Z,16.47
2019-02-19T04:05:44.270Z,20.37
2019-02-19T04:08:13.316Z,17.23
2019-02-19T04:10:42.345Z,20.00
2019-02-19T04:13:11.762Z,18.40
2019-02-19T04:15:41.566Z,18.23
2019-02-19T04:18:10.878Z,23.00
2019-02-19T04:20:39.969Z,17.00
2019-02-19T04:23:09.682Z,15.10
2019-02-19T04:25:38.980Z,17.43
2019-02-19T04:28:08.503Z,15.80
2019-02-19T04:30:38.013Z,18.17
2019-02-19T04:33:07.310Z,18.67
2019-02-19T04:35:36.715Z,17.83
2019-02-19T04:38:05.997Z,19.90
2019-02-19T04:40:36.612Z,18.20
2019-02-19T04:43:05.620Z,14.90
2019-02-19T04:45:34.698Z,24.60
2019-02-19T04:48:03.747Z,23.80
2019-02-19T04:50:32.729Z,16.33
2019-02-19T04:53:02.083Z,19.53
2019-02-19T04:55:31.461Z,17.23
2019-02-19T04:58:00.570Z,13.93
2019-02-19T05:00:29.883Z,20.93
2019-02-19T05:02:59.229Z,17.10
2019-02-19T05:05:28.549Z,19.97
2019-02-19T05:07:57.879Z,17.53
2019-02-19T05:10:27.224Z,20.07
2019-02-19T05:12:56.438Z,17.33
2019-02-19T05:15:25.689Z,21.07
2019-02-19T05:17:54.818Z,18.40
2019-02-19T05:20:24.264Z,16.37
2019-02-19T05:22:53.661Z,15.23
2019-02-19T05:25:23.078Z,15.47
2019-02-19T05:27:52.099Z,17.80
2019-02-19T05:30:21.426Z,21.53
2019-02-19T05:32:50.778Z,22.03
2019-02-19T05:35:19.830Z,19.50
2019-02-19T05:37:48.865Z,21.10
2019-02-19T05:40:18.222Z,19.07
2019-02-19T05:42:47.304Z,18.80
2019-02-19T05:45:16.305Z,20.57
2019-02-19T05:47:45.677Z,15.10
2019-02-19T05:50:15.565Z,19.10
2019-02-19T05:52:44.581Z,18.40
2019-02-19T05:55:13.611Z,21.50
2019-02-19T05:57:42.621Z,17.93
2019-02-19T06:00:12.631Z,17.00
2019-02-19T06:02:41.707Z,20.00
2019-02-19T06:05:10.904Z,16.43
2019-02-19T06:07:39.963Z,20.07
2019-02-19T06:10:10.767Z,20.47
2019-02-19T06:12:40.118Z,19.73
2019-02-19T06:15:09.666Z,20.50
2019-02-19T06:17:39.002Z,22.40
2019-02-19T06:20:08.548Z,24.50
2019-02-19T06:22:37.563Z,26.97
2019-02-19T06:25:07.922Z,19.17
2019-02-19T06:27:36.996Z,23.87
2019-02-19T06:30:08.815Z,30.53
2019-02-19T06:32:37.921Z,22.40
2019-02-19T06:35:07.535Z,21.23
2019-02-19T06:37:36.795Z,26.57
2019-02-19T06:40:06.831Z,22.37
2019-02-19T06:42:35.885Z,18.10
2019-02-19T06:45:05.303Z,21.50
2019-02-19T06:47:34.293Z,18.23
2019-02-19T06:50:03.771Z,21.93
2019-02-19T06:52:33.177Z,20.90
2019-02-19T06:55:02.277Z,23.47
2019-02-19T06:57:31.291Z,19.90
2019-02-19T07:00:00.343Z,19.53
2019-02-19T07:02:54.643Z,24.83
2019-02-19T07:05:25.044Z,20.70
2019-02-19T07:07:54.115Z,24.47
2019-02-19T07:10:23.146Z,24.70
2019-02-19T07:12:52.187Z,23.43
2019-02-19T07:15:21.240Z,22.33
2019-02-19T07:17:50.365Z,25.37
2019-02-19T07:20:19.407Z,22.13
2019-02-19T07:22:48.854Z,22.40
2019-02-19T07:25:18.268Z,16.43
2019-02-19T07:27:47.317Z,24.70
2019-02-19T07:30:16.339Z,23.00
2019-02-19T07:32:45.627Z,21.53
2019-02-19T07:35:14.985Z,19.17
2019-02-19T07:37:44.295Z,21.47
2019-02-19T07:40:13.342Z,21.77
2019-02-19T07:42:42.757Z,26.80
2019-02-19T07:45:11.869Z,28.43
2019-02-19T07:47:40.884Z,22.80
2019-02-19T07:50:10.213Z,23.13
2019-02-19T07:52:39.570Z,22.63
2019-02-19T07:55:09.107Z,26.80
2019-02-19T07:57:38.125Z,21.73
2019-02-19T08:00:08.172Z,26.90
2019-02-19T08:02:37.411Z,21.53
2019-02-19T08:05:06.814Z,31.47
2019-02-19T08:07:35.827Z,22.27
2019-02-19T08:10:05.276Z,21.77
2019-02-19T08:12:34.272Z,28.60
2019-02-19T08:15:03.301Z,26.63
2019-02-19T08:17:33.551Z,24.97
2019-02-19T08:20:02.862Z,26.87
2019-02-19T08:22:32.261Z,21.80
2019-02-19T08:25:01.313Z,24.80
2019-02-19T08:27:30.325Z,22.03
2019-02-19T08:29:59.315Z,25.10
2019-02-19T08:32:28.681Z,28.27
2019-02-19T08:34:58.046Z,33.53
2019-02-19T08:37:27.448Z,21.30
2019-02-19T08:39:56.776Z,22.23
2019-02-19T08:42:26.161Z,24.10
2019-02-19T08:44:55.169Z,24.80
2019-02-19T08:47:24.173Z,28.13
2019-02-19T08:49:53.187Z,22.77
2019-02-19T08:52:22.301Z,25.53
2019-02-19T08:54:51.631Z,24.87
2019-02-19T08:57:20.668Z,26.40
2019-02-19T08:59:49.686Z,22.83
2019-02-19T09:02:19.008Z,21.67
2019-02-19T09:04:48.162Z,18.07
2019-02-19T09:07:17.193Z,22.80
2019-02-19T09:09:46.901Z,22.10
2019-02-19T09:12:15.969Z,23.50
2019-02-19T09:14:45.053Z,23.20
2019-02-19T09:17:14.084Z,17.63
2019-02-19T09:19:43.097Z,16.23
2019-02-19T09:22:12.442Z,21.60
2019-02-19T09:24:41.463Z,23.43
2019-02-19T09:27:10.597Z,19.90
2019-02-19T09:29:39.658Z,24.70
2019-02-19T09:32:08.719Z,22.20
2019-02-19T09:34:37.742Z,22.03
2019-02-19T09:37:08.015Z,14.57
2019-02-19T09:39:37.319Z,25.73
2019-02-19T09:42:06.300Z,16.37
2019-02-19T09:44:35.757Z,20.27
2019-02-19T09:47:04.835Z,18.17
2019-02-19T09:49:33.855Z,17.53
2019-02-19T09:52:02.880Z,18.10
2019-02-19T09:54:31.920Z,16.97
2019-02-19T09:57:01.051Z,12.53
2019-02-19T09:59:30.168Z,19.37
2019-02-19T10:01:59.384Z,17.55
2019-02-19T10:04:28.461Z,17.00
2019-02-19T10:06:57.609Z,14.23
2019-02-19T10:09:26.711Z,14.30
2019-02-19T10:11:55.765Z,14.70
2019-02-19T10:14:24.821Z,17.60
2019-02-19T10:16:53.901Z,18.37
2019-02-19T10:19:22.979Z,15.73
2019-02-19T10:21:52.131Z,17.10
2019-02-19T10:24:21.144Z,14.37
2019-02-19T10:26:50.497Z,23.10
2019-02-19T10:29:19.541Z,17.23
2019-02-19T10:31:48.571Z,15.07
2019-02-19T10:34:17.618Z,16.43
2019-02-19T10:36:46.637Z,15.57
2019-02-19T10:39:15.639Z,12.95
2019-02-19T10:41:44.691Z,12.30
2019-02-19T10:44:13.726Z,11.05
2019-02-19T10:46:42.756Z,15.72
2019-02-19T10:49:11.771Z,12.03
2019-02-19T10:51:40.991Z,13.50
2019-02-19T10:54:10.189Z,14.15
2019-02-19T10:56:39.229Z,12.85
2019-02-19T10:59:08.551Z,13.60
2019-02-19T11:01:37.569Z,11.97
2019-02-19T11:04:06.629Z,12.97
2019-02-19T11:06:35.639Z,13.70
2019-02-19T11:09:05.903Z,11.50
2019-02-19T11:11:35.000Z,18.50
2019-02-19T11:14:04.070Z,12.10
2019-02-19T11:16:33.090Z,10.05
2019-02-19T11:19:02.168Z,11.30
2019-02-19T11:21:31.469Z,11.85
2019-02-19T11:24:00.479Z,10.80
2019-02-19T11:26:29.833Z,8.28
2019-02-19T11:28:58.855Z,9.83
2019-02-19T11:31:27.868Z,10.63
2019-02-19T11:33:57.276Z,12.70
2019-02-19T11:36:26.346Z,12.53
2019-02-19T11:38:55.340Z,8.93
2019-02-19T11:41:24.403Z,14.50
2019-02-19T11:43:53.399Z,12.63
2019-02-19T11:46:22.438Z,10.97
2019-02-19T11:48:51.463Z,11.27
2019-02-19T11:51:20.551Z,9.50
2019-02-19T11:53:49.554Z,8.57
2019-02-19T11:56:18.583Z,8.23
2019-02-19T11:58:47.958Z,9.63
2019-02-19T12:01:17.783Z,10.43
2019-02-19T12:03:46.824Z,8.80
2019-02-19T12:06:15.906Z,10.20
2019-02-19T12:08:45.215Z,12.13
2019-02-19T12:11:14.530Z,10.30
2019-02-19T12:13:43.566Z,9.77
2019-02-19T12:16:12.885Z,9.53
2019-02-19T12:18:46.277Z,11.40
2019-02-19T12:21:12.677Z,11.13
2019-02-19T12:23:41.976Z,7.97
2019-02-19T12:26:11.017Z,11.20
2019-02-19T12:28:40.024Z,8.57
2019-02-19T12:31:09.069Z,8.80
2019-02-19T12:33:38.088Z,10.98
2019-02-19T12:36:07.412Z,6.10
2019-02-19T12:38:36.488Z,10.35
2019-02-19T12:41:05.616Z,9.13
2019-02-19T12:43:34.889Z,8.05
2019-02-19T12:46:03.926Z,7.60
2019-02-19T12:48:33.020Z,12.68
2019-02-19T12:51:02.309Z,9.40
2019-02-19T12:53:31.365Z,10.48
2019-02-19T12:56:00.375Z,9.73
2019-02-19T12:58:29.724Z,9.73
2019-02-19T13:00:59.308Z,15.90
2019-02-19T13:03:28.348Z,7.97
2019-02-19T13:05:57.407Z,8.10
2019-02-19T13:08:26.718Z,9.88
2019-02-19T13:10:55.737Z,8.40
2019-02-19T13:13:24.736Z,9.53
2019-02-19T13:15:53.747Z,8.68
2019-02-19T13:18:23.040Z,9.55
2019-02-19T13:20:52.213Z,9.58
2019-02-19T13:23:21.234Z,11.33
2019-02-19T13:25:50.320Z,11.40
2019-02-19T13:28:19.625Z,9.23
2019-02-19T13:30:50.824Z,9.17
2019-02-19T13:33:19.831Z,10.20
2019-02-19T13:35:50.676Z,11.20
2019-02-19T13:38:19.803Z,6.97
2019-02-19T13:40:49.076Z,9.70
2019-02-19T13:43:18.367Z,7.70
2019-02-19T13:45:47.712Z,11.57
2019-02-19T13:48:16.757Z,8.57
2019-02-19T13:50:46.061Z,9.57
2019-02-19T13:53:34.080Z,8.40
2019-02-19T13:56:04.132Z,8.10
2019-02-19T13:58:33.152Z,9.40
2019-02-19T14:01:02.309Z,9.20
2019-02-19T14:03:31.596Z,8.57
2019-02-19T14:06:00.645Z,9.10
2019-02-19T14:08:29.697Z,7.30
2019-02-19T14:10:58.968Z,11.27
2019-02-19T14:13:27.975Z,8.33
2019-02-19T14:16:15.990Z,13.60
2019-02-19T14:18:48.488Z,7.27
2019-02-19T14:21:54.464Z,7.47
2019-02-19T14:24:39.406Z,6.47
2019-02-19T14:27:22.302Z,9.87
2019-02-19T14:30:19.494Z,8.23
2019-02-19T14:33:07.462Z,9.63
2019-02-19T14:36:00.548Z,8.17
2019-02-19T14:38:47.768Z,6.80
2019-02-19T14:41:36.823Z,6.20
2019-02-19T14:44:24.092Z,8.53
2019-02-19T14:47:12.104Z,16.10
2019-02-19T14:50:03.599Z,9.47
2019-02-19T14:52:57.404Z,7.87
2019-02-19T14:55:45.549Z,7.50
2019-02-19T14:58:36.726Z,8.43
2019-02-19T15:01:33.735Z,6.97
2019-02-19T15:04:33.782Z,10.97
2019-02-19T15:07:21.847Z,5.63
2019-02-19T15:10:08.506Z,9.33
2019-02-19T15:12:43.534Z,7.50
2019-02-19T15:15:29.627Z,7.53
2019-02-19T15:18:30.035Z,10.47
2019-02-19T15:21:33.223Z,9.73
2019-02-19T15:24:36.905Z,7.17
2019-02-19T15:27:21.014Z,10.27
2019-02-19T15:30:09.813Z,8.27
2019-02-19T15:33:00.876Z,7.57
2019-02-19T15:35:51.687Z,13.27
2019-02-19T15:38:38.469Z,8.70
2019-02-19T15:41:29.370Z,9.47
2019-02-19T15:44:26.492Z,8.47
2019-02-19T15:47:11.624Z,13.27
2019-02-19T15:49:58.094Z,8.10
2019-02-19T15:52:54.908Z,7.77
2019-02-19T15:55:34.215Z,13.50
2019-02-19T15:58:15.532Z,9.40
2019-02-19T16:00:46.874Z,8.73
2019-02-19T16:03:26.237Z,9.83
2019-02-19T16:06:26.347Z,9.53
2019-02-19T16:09:01.674Z,12.10
2019-02-19T16:11:52.718Z,12.80
2019-02-19T16:14:38.635Z,12.90
2019-02-19T16:17:16.544Z,11.27
2019-02-19T16:20:07.445Z,14.83
2019-02-19T16:22:55.484Z,12.30
2019-02-19T16:25:39.428Z,14.37
2019-02-19T16:28:20.987Z,11.03
2019-02-19T16:31:27.221Z,17.30
2019-02-19T16:34:13.676Z,13.30
2019-02-19T16:36:50.833Z,12.00
2019-02-19T16:39:36.715Z,17.20
2019-02-19T16:42:20.054Z,12.90
2019-02-19T16:45:09.070Z,11.37
2019-02-19T16:47:57.427Z,9.70
2019-02-19T16:50:36.286Z,10.57
2019-02-19T16:53:14.949Z,17.20
2019-02-19T16:56:02.982Z,11.27
2019-02-19T16:58:54.190Z,15.00
2019-02-19T17:01:52.344Z,12.53
2019-02-19T17:04:27.467Z,17.17
2019-02-19T17:07:18.478Z,10.50
2019-02-19T17:10:12.350Z,9.47
2019-02-19T17:12:53.954Z,12.77
2019-02-19T17:15:51.063Z,16.60
2019-02-19T17:18:37.848Z,11.50
2019-02-19T17:21:24.630Z,14.60
2019-02-19T17:24:05.994Z,12.10
2019-02-19T17:27:00.823Z,14.67
2019-02-19T17:29:36.585Z,18.43
2019-02-19T17:32:31.065Z,12.37
2019-02-19T17:35:22.238Z,14.70
2019-02-19T17:37:58.488Z,14.40
2019-02-19T17:40:55.710Z,16.53
2019-02-19T17:43:36.169Z,14.10
2019-02-19T17:46:12.752Z,15.27
2019-02-19T17:48:55.030Z,11.03
2019-02-19T17:51:58.415Z,16.20
2019-02-19T17:54:46.440Z,14.27
2019-02-19T17:57:33.347Z,21.77
2019-02-19T18:00:33.539Z,16.90
2019-02-19T18:03:23.300Z,21.37
2019-02-19T18:06:26.505Z,21.13
2019-02-19T18:09:14.542Z,22.03
2019-02-19T18:12:01.400Z,21.90
2019-02-19T18:14:41.391Z,14.93
2019-02-19T18:17:32.327Z,21.07
2019-02-19T18:20:01.393Z,18.83
2019-02-19T18:22:30.738Z,18.60
2019-02-19T18:25:00.299Z,16.90
2019-02-19T18:27:29.391Z,15.13
2019-02-19T18:29:58.467Z,14.03
2019-02-19T18:32:27.566Z,18.13
2019-02-19T18:34:56.648Z,18.17
2019-02-19T18:37:25.720Z,15.03
2019-02-19T18:39:54.748Z,18.17
2019-02-19T18:42:23.790Z,19.53
2019-02-19T18:44:52.803Z,16.83
2019-02-19T18:47:21.964Z,13.93
2019-02-19T18:49:50.997Z,19.03
2019-02-19T18:52:20.376Z,18.23
2019-02-19T18:54:50.090Z,16.70
2019-02-19T18:57:19.764Z,19.13
2019-02-19T18:59:48.792Z,23.80
2019-02-19T19:02:18.118Z,14.67
2019-02-19T19:04:47.679Z,15.90
2019-02-19T19:07:16.713Z,19.50
2019-02-19T19:09:45.735Z,17.20
2019-02-19T19:12:15.077Z,24.63
2019-02-19T19:14:44.142Z,13.93
2019-02-19T19:17:13.166Z,17.43
2019-02-19T19:19:42.194Z,16.67
2019-02-19T19:22:11.494Z,17.90
2019-02-19T19:24:40.843Z,18.17
2019-02-19T19:27:10.174Z,15.43
2019-02-19T19:29:39.208Z,18.57
2019-02-19T19:32:08.398Z,18.57
2019-02-19T19:34:37.848Z,16.77
2019-02-19T19:37:06.922Z,21.00
2019-02-19T19:39:35.955Z,17.87
2019-02-19T19:42:05.007Z,17.97
2019-02-19T19:44:34.053Z,18.87
2019-02-19T19:47:03.098Z,15.33
2019-02-19T19:49:32.516Z,21.33
2019-02-19T19:52:02.041Z,18.10
2019-02-19T19:54:31.930Z,21.73
2019-02-19T19:57:01.009Z,17.37
2019-02-19T19:59:30.244Z,14.23
2019-02-19T20:01:59.296Z,22.53
2019-02-19T20:04:28.459Z,18.77
2019-02-19T20:06:57.536Z,20.17
2019-02-19T20:09:26.599Z,19.40
2019-02-19T20:11:55.698Z,24.80
2019-02-19T20:14:24.701Z,21.30
2019-02-19T20:16:53.764Z,19.77
2019-02-19T20:19:22.885Z,16.00
2019-02-19T20:21:52.224Z,20.20
2019-02-19T20:24:21.326Z,20.23
2019-02-19T20:26:50.386Z,19.03
2019-02-19T20:29:19.412Z,19.40
2019-02-19T20:31:48.795Z,17.67
2019-02-19T20:34:17.842Z,19.93
2019-02-19T20:36:47.062Z,19.90
2019-02-19T20:39:16.222Z,16.93
2019-02-19T20:41:45.285Z,18.87
2019-02-19T20:44:14.322Z,20.47
2019-02-19T20:46:44.035Z,21.60
2019-02-19T20:49:13.090Z,21.50
2019-02-19T20:51:42.210Z,18.53
2019-02-19T20:54:11.214Z,19.70
2019-02-19T20:56:40.263Z,15.13
2019-02-19T20:59:09.263Z,19.70
2019-02-19T21:01:38.336Z,24.33
2019-02-19T21:04:07.748Z,21.57
2019-02-19T21:06:37.275Z,21.70
2019-02-19T21:09:07.724Z,20.27
2019-02-19T21:11:38.311Z,21.03
2019-02-19T21:14:07.437Z,25.00
2019-02-19T21:16:37.042Z,23.20
2019-02-19T21:19:06.108Z,23.50
2019-02-19T21:21:35.174Z,19.47
2019-02-19T21:24:04.312Z,24.07
2019-02-19T21:26:33.644Z,23.50
2019-02-19T21:29:02.716Z,27.57
2019-02-19T21:31:31.761Z,21.73
2019-02-19T21:34:00.818Z,20.20
2019-02-19T21:36:30.109Z,27.40
2019-02-19T21:38:59.184Z,27.17
2019-02-19T21:41:28.210Z,20.13
2019-02-19T21:43:57.301Z,21.73
2019-02-19T21:46:26.333Z,19.97
2019-02-19T21:48:55.377Z,20.20
2019-02-19T21:51:24.444Z,20.67
2019-02-19T21:53:53.515Z,25.07
2019-02-19T21:56:22.567Z,25.37
2019-02-19T21:58:51.611Z,25.30
2019-02-19T22:01:20.657Z,22.90
2019-02-19T22:03:49.735Z,23.53
2019-02-19T22:06:18.779Z,21.03
2019-02-19T22:08:47.827Z,21.30
2019-02-19T22:11:16.921Z,19.83
2019-02-19T22:13:46.601Z,25.60
2019-02-19T22:16:18.813Z,25.27
2019-02-19T22:18:47.843Z,20.77
2019-02-19T22:21:21.910Z,24.73
2019-02-19T22:23:51.317Z,19.90
2019-02-19T22:26:20.351Z,21.33
2019-02-19T22:28:49.507Z,20.30
2019-02-19T22:31:18.576Z,25.00
2019-02-19T22:33:48.029Z,18.27
2019-02-19T22:36:17.305Z,17.77
2019-02-19T22:38:46.360Z,19.97
2019-02-19T22:41:15.401Z,19.27
2019-02-19T22:43:44.415Z,22.60
2019-02-19T22:46:13.911Z,19.63
2019-02-19T22:48:43.291Z,22.60
2019-02-19T22:51:12.701Z,15.40
2019-02-19T22:54:12.931Z,15.93
2019-02-19T22:56:44.203Z,20.77
2019-02-19T22:59:13.270Z,18.60
2019-02-19T23:02:02.377Z,18.87
2019-02-19T23:04:33.289Z,17.90
2019-02-19T23:07:02.371Z,16.53
2019-02-19T23:09:31.669Z,19.23
2019-02-19T23:12:00.739Z,18.33
2019-02-19T23:14:29.777Z,22.00
2019-02-19T23:16:58.841Z,16.53
2019-02-19T23:19:28.173Z,23.10
2019-02-19T23:21:57.216Z,23.13
2019-02-19T23:24:26.537Z,23.83
2019-02-19T23:26:55.629Z,26.80
2019-02-19T23:29:24.734Z,27.33
2019-02-19T23:31:53.737Z,23.30
2019-02-19T23:34:23.141Z,28.43
2019-02-19T23:36:58.300Z,25.23
2019-02-19T23:39:27.398Z,28.20
2019-02-19T23:41:56.666Z,26.23
2019-02-19T23:44:25.690Z,26.97
2019-02-19T23:46:54.891Z,25.73
2019-02-19T23:49:23.928Z,23.93
2019-02-19T23:51:53.477Z,21.77
2019-02-19T23:54:22.571Z,25.00
2019-02-19T23:56:51.645Z,23.30
2019-02-19T23:59:21.082Z,24.60
